sensor_id;sensor_type;location;lat;lon;timestamp;temperature;humidity
27759;DHT22;15148;48.972;12.794;2023-05-07T00:04:12;11.60;99.90
27759;DHT22;15148;48.972;12.794;2023-05-07T00:09:15;11.50;99.90
27759;DHT22;15148;48.972;12.794;2023-05-07T00:14:18;11.60;99.90
27759;DHT22;15148;48.972;12.794;2023-05-07T00:19:19;11.50;99.90
27759;DHT22;15148;48.972;12.794;2023-05-07T00:24:22;11.60;99.90
27759;DHT22;15148;48.972;12.794;2023-05-07T00:29:23;11.50;99.90
27759;DHT22;15148;48.972;12.794;2023-05-07T00:34:25;11.50;99.90
27759;DHT22;15148;48.972;12.794;2023-05-07T00:39:27;11.50;99.90
27759;DHT22;15148;48.972;12.794;2023-05-07T00:44:29;11.50;99.90
27759;DHT22;15148;48.972;12.794;2023-05-07T00:49:38;11.50;99.90
27759;DHT22;15148;48.972;12.794;2023-05-07T00:54:41;11.40;99.90
27759;DHT22;15148;48.972;12.794;2023-05-07T00:59:43;11.30;99.90
27759;DHT22;15148;48.972;12.794;2023-05-07T01:04:44;11.30;99.90
27759;DHT22;15148;48.972;12.794;2023-05-07T01:09:47;11.20;99.90
27759;DHT22;15148;48.972;12.794;2023-05-07T01:14:49;11.20;99.90
27759;DHT22;15148;48.972;12.794;2023-05-07T01:19:52;11.20;99.90
27759;DHT22;15148;48.972;12.794;2023-05-07T01:24:55;11.00;99.90
27759;DHT22;15148;48.972;12.794;2023-05-07T01:29:58;11.00;99.90
27759;DHT22;15148;48.972;12.794;2023-05-07T01:35:02;11.10;99.90
27759;DHT22;15148;48.972;12.794;2023-05-07T01:40:06;10.90;99.90
27759;DHT22;15148;48.972;12.794;2023-05-07T01:45:09;10.90;99.90
27759;DHT22;15148;48.972;12.794;2023-05-07T01:50:12;10.80;99.90
27759;DHT22;15148;48.972;12.794;2023-05-07T01:55:14;10.80;99.90
27759;DHT22;15148;48.972;12.794;2023-05-07T02:00:16;10.90;99.90
27759;DHT22;15148;48.972;12.794;2023-05-07T02:05:19;10.90;99.90
27759;DHT22;15148;48.972;12.794;2023-05-07T02:10:26;10.80;99.90
27759;DHT22;15148;48.972;12.794;2023-05-07T02:15:28;10.80;99.90
27759;DHT22;15148;48.972;12.794;2023-05-07T02:20:32;10.90;99.90
27759;DHT22;15148;48.972;12.794;2023-05-07T02:25:34;10.60;99.90
27759;DHT22;15148;48.972;12.794;2023-05-07T02:30:37;10.60;99.90
27759;DHT22;15148;48.972;12.794;2023-05-07T02:35:39;10.60;99.90
27759;DHT22;15148;48.972;12.794;2023-05-07T02:40:42;10.60;99.90
27759;DHT22;15148;48.972;12.794;2023-05-07T02:45:43;10.60;99.90
27759;DHT22;15148;48.972;12.794;2023-05-07T02:50:46;10.40;99.90
27759;DHT22;15148;48.972;12.794;2023-05-07T02:55:49;10.50;99.90
27759;DHT22;15148;48.972;12.794;2023-05-07T03:00:52;10.30;99.90
27759;DHT22;15148;48.972;12.794;2023-05-07T03:06:06;10.30;99.90
27759;DHT22;15148;48.972;12.794;2023-05-07T03:11:08;10.30;99.90
27759;DHT22;15148;48.972;12.794;2023-05-07T03:16:10;10.30;99.90
27759;DHT22;15148;48.972;12.794;2023-05-07T03:21:12;10.30;99.90
27759;DHT22;15148;48.972;12.794;2023-05-07T03:26:14;10.30;99.90
27759;DHT22;15148;48.972;12.794;2023-05-07T03:31:18;10.30;99.90
27759;DHT22;15148;48.972;12.794;2023-05-07T03:36:21;10.20;99.90
27759;DHT22;15148;48.972;12.794;2023-05-07T03:41:24;10.20;99.90
27759;DHT22;15148;48.972;12.794;2023-05-07T03:46:28;10.10;99.90
27759;DHT22;15148;48.972;12.794;2023-05-07T03:51:30;10.00;99.90
27759;DHT22;15148;48.972;12.794;2023-05-07T03:56:32;10.10;99.90
27759;DHT22;15148;48.972;12.794;2023-05-07T04:01:34;10.10;99.90
27759;DHT22;15148;48.972;12.794;2023-05-07T04:06:37;10.10;99.90
27759;DHT22;15148;48.972;12.794;2023-05-07T04:11:39;10.20;99.90
27759;DHT22;15148;48.972;12.794;2023-05-07T04:16:44;10.20;99.90
27759;DHT22;15148;48.972;12.794;2023-05-07T04:21:46;10.30;99.90
27759;DHT22;15148;48.972;12.794;2023-05-07T04:26:48;10.30;99.90
27759;DHT22;15148;48.972;12.794;2023-05-07T04:31:50;10.40;99.90
27759;DHT22;15148;48.972;12.794;2023-05-07T04:36:52;10.40;99.90
27759;DHT22;15148;48.972;12.794;2023-05-07T04:41:54;10.60;99.90
27759;DHT22;15148;48.972;12.794;2023-05-07T04:46:57;10.50;99.90
27759;DHT22;15148;48.972;12.794;2023-05-07T04:51:59;10.60;99.90
27759;DHT22;15148;48.972;12.794;2023-05-07T04:57:03;10.60;99.90
27759;DHT22;15148;48.972;12.794;2023-05-07T05:02:06;10.80;99.90
27759;DHT22;15148;48.972;12.794;2023-05-07T05:07:08;11.10;99.90
27759;DHT22;15148;48.972;12.794;2023-05-07T05:12:10;11.50;99.90
27759;DHT22;15148;48.972;12.794;2023-05-07T05:17:13;12.40;99.90
27759;DHT22;15148;48.972;12.794;2023-05-07T05:22:16;14.20;99.90
27759;DHT22;15148;48.972;12.794;2023-05-07T05:27:18;17.20;99.90
27759;DHT22;15148;48.972;12.794;2023-05-07T05:32:20;18.40;99.90
27759;DHT22;15148;48.972;12.794;2023-05-07T05:37:23;20.00;99.90
27759;DHT22;15148;48.972;12.794;2023-05-07T05:42:25;20.50;99.90
27759;DHT22;15148;48.972;12.794;2023-05-07T05:47:29;20.70;99.90
27759;DHT22;15148;48.972;12.794;2023-05-07T05:52:31;20.00;99.90
27759;DHT22;15148;48.972;12.794;2023-05-07T05:57:33;19.80;99.90
27759;DHT22;15148;48.972;12.794;2023-05-07T06:02:36;19.10;99.90
27759;DHT22;15148;48.972;12.794;2023-05-07T06:07:38;18.60;99.90
27759;DHT22;15148;48.972;12.794;2023-05-07T06:12:40;18.40;99.90
27759;DHT22;15148;48.972;12.794;2023-05-07T06:17:42;18.50;99.90
27759;DHT22;15148;48.972;12.794;2023-05-07T06:22:45;18.50;99.90
27759;DHT22;15148;48.972;12.794;2023-05-07T06:27:49;18.90;99.90
27759;DHT22;15148;48.972;12.794;2023-05-07T06:32:51;19.10;99.90
27759;DHT22;15148;48.972;12.794;2023-05-07T06:37:53;19.10;99.90
27759;DHT22;15148;48.972;12.794;2023-05-07T06:42:59;19.00;99.90
27759;DHT22;15148;48.972;12.794;2023-05-07T06:48:21;19.10;99.90
27759;DHT22;15148;48.972;12.794;2023-05-07T06:53:30;19.30;99.90
27759;DHT22;15148;48.972;12.794;2023-05-07T06:58:34;19.40;99.90
27759;DHT22;15148;48.972;12.794;2023-05-07T07:03:36;19.50;99.90
27759;DHT22;15148;48.972;12.794;2023-05-07T07:08:39;19.70;99.90
27759;DHT22;15148;48.972;12.794;2023-05-07T07:13:41;19.90;99.90
27759;DHT22;15148;48.972;12.794;2023-05-07T07:18:45;19.70;99.90
27759;DHT22;15148;48.972;12.794;2023-05-07T07:23:47;20.00;99.90
27759;DHT22;15148;48.972;12.794;2023-05-07T07:28:50;20.10;99.90
27759;DHT22;15148;48.972;12.794;2023-05-07T07:33:55;20.20;99.90
27759;DHT22;15148;48.972;12.794;2023-05-07T07:38:57;20.10;99.90
27759;DHT22;15148;48.972;12.794;2023-05-07T07:43:59;20.00;99.90
27759;DHT22;15148;48.972;12.794;2023-05-07T07:49:01;20.10;99.90
27759;DHT22;15148;48.972;12.794;2023-05-07T07:54:03;20.30;99.90
27759;DHT22;15148;48.972;12.794;2023-05-07T07:59:07;20.50;99.90
27759;DHT22;15148;48.972;12.794;2023-05-07T08:04:12;20.90;99.90
27759;DHT22;15148;48.972;12.794;2023-05-07T08:09:16;21.10;99.90
27759;DHT22;15148;48.972;12.794;2023-05-07T08:14:18;21.30;99.90
27759;DHT22;15148;48.972;12.794;2023-05-07T08:19:22;21.70;99.90
27759;DHT22;15148;48.972;12.794;2023-05-07T08:24:25;21.70;99.90
27759;DHT22;15148;48.972;12.794;2023-05-07T08:29:27;21.80;99.90
27759;DHT22;15148;48.972;12.794;2023-05-07T08:34:30;21.50;99.90
27759;DHT22;15148;48.972;12.794;2023-05-07T08:39:35;21.40;99.90
27759;DHT22;15148;48.972;12.794;2023-05-07T08:44:45;21.20;99.90
27759;DHT22;15148;48.972;12.794;2023-05-07T08:49:50;21.20;99.90
27759;DHT22;15148;48.972;12.794;2023-05-07T08:54:53;21.20;99.90
27759;DHT22;15148;48.972;12.794;2023-05-07T08:59:56;20.80;99.90
27759;DHT22;15148;48.972;12.794;2023-05-07T09:04:58;20.90;99.90
27759;DHT22;15148;48.972;12.794;2023-05-07T09:10:05;20.90;99.90
27759;DHT22;15148;48.972;12.794;2023-05-07T09:15:09;20.80;99.90
27759;DHT22;15148;48.972;12.794;2023-05-07T09:20:13;20.90;99.90
27759;DHT22;15148;48.972;12.794;2023-05-07T09:25:15;21.10;99.90
27759;DHT22;15148;48.972;12.794;2023-05-07T09:30:17;21.10;99.90
27759;DHT22;15148;48.972;12.794;2023-05-07T09:35:19;20.80;99.90
27759;DHT22;15148;48.972;12.794;2023-05-07T09:40:29;20.80;99.90
27759;DHT22;15148;48.972;12.794;2023-05-07T09:45:36;20.50;99.90
27759;DHT22;15148;48.972;12.794;2023-05-07T09:50:49;20.40;99.90
27759;DHT22;15148;48.972;12.794;2023-05-07T09:55:58;20.10;99.90
27759;DHT22;15148;48.972;12.794;2023-05-07T10:01:04;19.90;99.90
27759;DHT22;15148;48.972;12.794;2023-05-07T10:06:09;19.80;99.90
27759;DHT22;15148;48.972;12.794;2023-05-07T10:11:12;19.90;99.90
27759;DHT22;15148;48.972;12.794;2023-05-07T10:16:17;19.90;99.90
27759;DHT22;15148;48.972;12.794;2023-05-07T10:21:23;20.00;99.90
27759;DHT22;15148;48.972;12.794;2023-05-07T10:26:29;20.30;99.90
27759;DHT22;15148;48.972;12.794;2023-05-07T10:36:51;20.40;99.90
27759;DHT22;15148;48.972;12.794;2023-05-07T10:41:54;20.20;99.90
27759;DHT22;15148;48.972;12.794;2023-05-07T10:47:10;20.40;99.90
27759;DHT22;15148;48.972;12.794;2023-05-07T10:52:18;20.70;99.90
27759;DHT22;15148;48.972;12.794;2023-05-07T10:57:36;21.10;99.90
27759;DHT22;15148;48.972;12.794;2023-05-07T11:08:16;21.20;99.90
27759;DHT22;15148;48.972;12.794;2023-05-07T11:13:45;21.20;99.90
27759;DHT22;15148;48.972;12.794;2023-05-07T11:19:13;21.40;99.90
27759;DHT22;15148;48.972;12.794;2023-05-07T11:24:21;21.40;99.90
27759;DHT22;15148;48.972;12.794;2023-05-07T11:29:34;21.50;99.90
27759;DHT22;15148;48.972;12.794;2023-05-07T11:34:47;21.80;99.90
27759;DHT22;15148;48.972;12.794;2023-05-07T11:39:50;22.00;99.90
27759;DHT22;15148;48.972;12.794;2023-05-07T11:44:56;22.20;99.90
27759;DHT22;15148;48.972;12.794;2023-05-07T11:50:03;22.50;99.90
27759;DHT22;15148;48.972;12.794;2023-05-07T11:55:07;22.50;99.90
27759;DHT22;15148;48.972;12.794;2023-05-07T12:00:10;22.30;99.90
27759;DHT22;15148;48.972;12.794;2023-05-07T12:05:15;22.30;99.90
27759;DHT22;15148;48.972;12.794;2023-05-07T12:10:18;22.80;99.90
27759;DHT22;15148;48.972;12.794;2023-05-07T12:15:24;23.00;99.90
27759;DHT22;15148;48.972;12.794;2023-05-07T12:20:26;22.80;99.90
27759;DHT22;15148;48.972;12.794;2023-05-07T12:25:46;22.70;99.90
27759;DHT22;15148;48.972;12.794;2023-05-07T12:30:50;22.90;99.90
27759;DHT22;15148;48.972;12.794;2023-05-07T12:35:54;23.00;99.90
27759;DHT22;15148;48.972;12.794;2023-05-07T12:40:57;23.20;99.90
27759;DHT22;15148;48.972;12.794;2023-05-07T12:51:08;23.10;99.90
27759;DHT22;15148;48.972;12.794;2023-05-07T12:56:15;23.00;99.90
27759;DHT22;15148;48.972;12.794;2023-05-07T13:01:17;22.80;99.90
27759;DHT22;15148;48.972;12.794;2023-05-07T13:06:20;22.60;99.90
27759;DHT22;15148;48.972;12.794;2023-05-07T13:11:22;22.50;99.90
27759;DHT22;15148;48.972;12.794;2023-05-07T13:16:24;22.40;99.90
27759;DHT22;15148;48.972;12.794;2023-05-07T13:21:26;22.50;99.90
27759;DHT22;15148;48.972;12.794;2023-05-07T13:26:30;22.70;99.90
27759;DHT22;15148;48.972;12.794;2023-05-07T13:31:32;22.80;99.90
27759;DHT22;15148;48.972;12.794;2023-05-07T13:36:35;22.90;99.90
27759;DHT22;15148;48.972;12.794;2023-05-07T13:41:41;23.00;99.90
27759;DHT22;15148;48.972;12.794;2023-05-07T13:46:43;22.70;99.90
27759;DHT22;15148;48.972;12.794;2023-05-07T13:51:45;22.40;99.90
27759;DHT22;15148;48.972;12.794;2023-05-07T13:56:50;22.30;99.90
27759;DHT22;15148;48.972;12.794;2023-05-07T14:01:52;22.10;99.90
27759;DHT22;15148;48.972;12.794;2023-05-07T14:06:53;22.00;99.90
27759;DHT22;15148;48.972;12.794;2023-05-07T14:11:55;21.90;99.90
27759;DHT22;15148;48.972;12.794;2023-05-07T14:16:57;21.50;99.90
27759;DHT22;15148;48.972;12.794;2023-05-07T14:22:00;21.30;99.90
27759;DHT22;15148;48.972;12.794;2023-05-07T14:27:02;21.20;99.90
27759;DHT22;15148;48.972;12.794;2023-05-07T14:32:04;21.00;99.90
27759;DHT22;15148;48.972;12.794;2023-05-07T14:37:06;20.90;99.90
27759;DHT22;15148;48.972;12.794;2023-05-07T14:42:08;20.80;99.90
27759;DHT22;15148;48.972;12.794;2023-05-07T14:47:10;20.70;99.90
27759;DHT22;15148;48.972;12.794;2023-05-07T14:52:12;20.50;99.90
27759;DHT22;15148;48.972;12.794;2023-05-07T14:57:14;20.40;99.90
27759;DHT22;15148;48.972;12.794;2023-05-07T15:02:18;20.30;99.90
27759;DHT22;15148;48.972;12.794;2023-05-07T15:07:22;20.10;99.90
27759;DHT22;15148;48.972;12.794;2023-05-07T15:12:23;19.80;99.90
27759;DHT22;15148;48.972;12.794;2023-05-07T15:17:25;19.70;99.90
27759;DHT22;15148;48.972;12.794;2023-05-07T15:22:27;19.50;99.90
27759;DHT22;15148;48.972;12.794;2023-05-07T15:27:29;19.40;99.90
27759;DHT22;15148;48.972;12.794;2023-05-07T15:32:32;19.40;99.90
27759;DHT22;15148;48.972;12.794;2023-05-07T15:37:34;19.30;99.90
27759;DHT22;15148;48.972;12.794;2023-05-07T15:42:36;19.20;99.90
27759;DHT22;15148;48.972;12.794;2023-05-07T15:47:38;19.00;99.90
27759;DHT22;15148;48.972;12.794;2023-05-07T15:52:40;19.00;99.90
27759;DHT22;15148;48.972;12.794;2023-05-07T15:57:42;19.00;99.90
27759;DHT22;15148;48.972;12.794;2023-05-07T16:02:44;18.90;99.90
27759;DHT22;15148;48.972;12.794;2023-05-07T16:07:46;18.90;99.90
27759;DHT22;15148;48.972;12.794;2023-05-07T16:12:48;18.90;99.90
27759;DHT22;15148;48.972;12.794;2023-05-07T16:17:50;18.90;99.90
27759;DHT22;15148;48.972;12.794;2023-05-07T16:22:52;18.90;99.90
27759;DHT22;15148;48.972;12.794;2023-05-07T16:27:55;18.80;99.90
27759;DHT22;15148;48.972;12.794;2023-05-07T16:32:57;18.80;99.90
27759;DHT22;15148;48.972;12.794;2023-05-07T16:37:58;18.80;99.90
27759;DHT22;15148;48.972;12.794;2023-05-07T16:43:00;18.80;99.90
27759;DHT22;15148;48.972;12.794;2023-05-07T16:48:04;18.80;99.90
27759;DHT22;15148;48.972;12.794;2023-05-07T16:53:12;18.70;99.90
27759;DHT22;15148;48.972;12.794;2023-05-07T16:58:14;18.80;99.90
27759;DHT22;15148;48.972;12.794;2023-05-07T17:03:16;18.70;99.90
27759;DHT22;15148;48.972;12.794;2023-05-07T17:08:18;18.70;99.90
27759;DHT22;15148;48.972;12.794;2023-05-07T17:13:20;18.60;99.90
27759;DHT22;15148;48.972;12.794;2023-05-07T17:18:22;18.60;99.90
27759;DHT22;15148;48.972;12.794;2023-05-07T17:23:24;18.50;99.90
27759;DHT22;15148;48.972;12.794;2023-05-07T17:28:25;18.40;99.90
27759;DHT22;15148;48.972;12.794;2023-05-07T17:33:27;18.40;99.90
27759;DHT22;15148;48.972;12.794;2023-05-07T17:38:29;18.20;99.90
27759;DHT22;15148;48.972;12.794;2023-05-07T17:43:31;18.20;99.90
27759;DHT22;15148;48.972;12.794;2023-05-07T17:48:33;18.10;99.90
27759;DHT22;15148;48.972;12.794;2023-05-07T17:53:35;17.90;99.90
27759;DHT22;15148;48.972;12.794;2023-05-07T17:58:37;17.90;99.90
27759;DHT22;15148;48.972;12.794;2023-05-07T18:03:59;17.70;99.90
27759;DHT22;15148;48.972;12.794;2023-05-07T18:09:01;17.50;99.90
27759;DHT22;15148;48.972;12.794;2023-05-07T18:14:03;17.40;99.90
27759;DHT22;15148;48.972;12.794;2023-05-07T18:19:05;17.30;99.90
27759;DHT22;15148;48.972;12.794;2023-05-07T18:24:07;17.20;99.90
27759;DHT22;15148;48.972;12.794;2023-05-07T18:29:09;17.10;99.90
27759;DHT22;15148;48.972;12.794;2023-05-07T18:34:11;17.00;99.90
27759;DHT22;15148;48.972;12.794;2023-05-07T18:39:14;16.90;99.90
27759;DHT22;15148;48.972;12.794;2023-05-07T18:44:16;16.80;99.90
27759;DHT22;15148;48.972;12.794;2023-05-07T18:49:18;16.80;99.90
27759;DHT22;15148;48.972;12.794;2023-05-07T18:54:20;16.60;99.90
27759;DHT22;15148;48.972;12.794;2023-05-07T18:59:22;16.60;99.90
27759;DHT22;15148;48.972;12.794;2023-05-07T19:04:23;16.50;99.90
27759;DHT22;15148;48.972;12.794;2023-05-07T19:09:25;16.40;99.90
27759;DHT22;15148;48.972;12.794;2023-05-07T19:14:27;16.30;99.90
27759;DHT22;15148;48.972;12.794;2023-05-07T19:19:29;16.20;99.90
27759;DHT22;15148;48.972;12.794;2023-05-07T19:24:31;16.10;99.90
27759;DHT22;15148;48.972;12.794;2023-05-07T19:29:33;16.10;99.90
27759;DHT22;15148;48.972;12.794;2023-05-07T19:34:35;16.00;99.90
27759;DHT22;15148;48.972;12.794;2023-05-07T19:39:37;16.00;99.90
27759;DHT22;15148;48.972;12.794;2023-05-07T19:44:39;16.00;99.90
27759;DHT22;15148;48.972;12.794;2023-05-07T19:49:41;15.90;99.90
27759;DHT22;15148;48.972;12.794;2023-05-07T19:54:43;15.90;99.90
27759;DHT22;15148;48.972;12.794;2023-05-07T19:59:45;15.80;99.90
27759;DHT22;15148;48.972;12.794;2023-05-07T20:04:47;15.90;99.90
27759;DHT22;15148;48.972;12.794;2023-05-07T20:09:49;15.80;99.90
27759;DHT22;15148;48.972;12.794;2023-05-07T20:14:51;15.80;99.90
27759;DHT22;15148;48.972;12.794;2023-05-07T20:19:54;15.80;99.90
27759;DHT22;15148;48.972;12.794;2023-05-07T20:24:56;15.80;99.90
27759;DHT22;15148;48.972;12.794;2023-05-07T20:29:57;15.80;99.90
27759;DHT22;15148;48.972;12.794;2023-05-07T20:34:59;15.80;99.90
27759;DHT22;15148;48.972;12.794;2023-05-07T20:40:01;15.80;99.90
27759;DHT22;15148;48.972;12.794;2023-05-07T20:45:05;15.80;99.90
27759;DHT22;15148;48.972;12.794;2023-05-07T20:50:07;15.70;99.90
27759;DHT22;15148;48.972;12.794;2023-05-07T20:55:09;15.70;99.90
27759;DHT22;15148;48.972;12.794;2023-05-07T21:00:12;15.60;99.90
27759;DHT22;15148;48.972;12.794;2023-05-07T21:05:15;15.60;99.90
27759;DHT22;15148;48.972;12.794;2023-05-07T21:10:16;15.60;99.90
27759;DHT22;15148;48.972;12.794;2023-05-07T21:15:18;15.60;99.90
27759;DHT22;15148;48.972;12.794;2023-05-07T21:20:20;15.60;99.90
27759;DHT22;15148;48.972;12.794;2023-05-07T21:25:22;15.70;99.90
27759;DHT22;15148;48.972;12.794;2023-05-07T21:30:24;15.50;99.90
27759;DHT22;15148;48.972;12.794;2023-05-07T21:35:26;15.40;99.90
27759;DHT22;15148;48.972;12.794;2023-05-07T21:40:28;15.40;99.90
27759;DHT22;15148;48.972;12.794;2023-05-07T21:45:30;15.30;99.90
27759;DHT22;15148;48.972;12.794;2023-05-07T21:50:31;15.30;99.90
27759;DHT22;15148;48.972;12.794;2023-05-07T21:55:33;15.30;99.90
27759;DHT22;15148;48.972;12.794;2023-05-07T22:00:35;15.20;99.90
27759;DHT22;15148;48.972;12.794;2023-05-07T22:05:37;15.20;99.90
27759;DHT22;15148;48.972;12.794;2023-05-07T22:10:39;15.20;99.90
27759;DHT22;15148;48.972;12.794;2023-05-07T22:15:41;15.30;99.90
27759;DHT22;15148;48.972;12.794;2023-05-07T22:20:58;15.20;99.90
27759;DHT22;15148;48.972;12.794;2023-05-07T22:26:01;15.20;99.90
27759;DHT22;15148;48.972;12.794;2023-05-07T22:31:03;15.20;99.90
27759;DHT22;15148;48.972;12.794;2023-05-07T22:36:05;15.10;99.90
27759;DHT22;15148;48.972;12.794;2023-05-07T22:41:08;15.00;99.90
27759;DHT22;15148;48.972;12.794;2023-05-07T22:46:10;14.80;99.90
27759;DHT22;15148;48.972;12.794;2023-05-07T22:51:12;14.40;99.90
27759;DHT22;15148;48.972;12.794;2023-05-07T22:56:15;14.20;99.90
27759;DHT22;15148;48.972;12.794;2023-05-07T23:01:17;14.10;99.90
27759;DHT22;15148;48.972;12.794;2023-05-07T23:06:19;13.90;99.90
27759;DHT22;15148;48.972;12.794;2023-05-07T23:11:21;13.90;99.90
27759;DHT22;15148;48.972;12.794;2023-05-07T23:16:23;13.90;99.90
27759;DHT22;15148;48.972;12.794;2023-05-07T23:21:25;13.70;99.90
27759;DHT22;15148;48.972;12.794;2023-05-07T23:26:27;13.70;99.90
27759;DHT22;15148;48.972;12.794;2023-05-07T23:31:29;13.60;99.90
27759;DHT22;15148;48.972;12.794;2023-05-07T23:36:31;13.40;99.90
27759;DHT22;15148;48.972;12.794;2023-05-07T23:41:33;13.30;99.90
27759;DHT22;15148;48.972;12.794;2023-05-07T23:46:35;13.20;99.90
27759;DHT22;15148;48.972;12.794;2023-05-07T23:51:37;12.90;99.90
27759;DHT22;15148;48.972;12.794;2023-05-07T23:56:39;12.80;99.90
